Time;durP1;ratioP1;P1;durP2;ratioP2;P2;SDS_P1;SDS_P2;PMS_P1;PMS_P2;Temp;Humidity;BMP_temperature;BMP_pressure;BME280_temperature;BME280_humidity;BME280_pressure;Samples;Min_cycle;Max_cycle;Signal;HPM_P1;HPM_P2
2022/08/11 05:02:29;;;;;;;3.78;3.35;;;20.20;97.20;;;;;;1734992;28;20203;-72
2022/08/11 05:03:42;;;;;;;5.28;3.30;;;20.20;97.20;;;;;;1735131;28;20215;-72
2022/08/11 05:06:28;;;;;;;5.07;3.58;;;20.30;97.20;;;;;;1734935;28;20231;-72
2022/08/11 05:07:58;;;;;;;4.10;3.70;;;20.20;97.20;;;;;;1734857;28;20852;-72
2022/08/11 05:09:22;;;;;;;5.50;3.60;;;20.30;97.20;;;;;;1734988;28;20200;-72
2022/08/11 05:10:24;;;;;;;3.58;3.28;;;20.30;97.20;;;;;;1734842;28;20215;-72
2022/08/11 05:11:43;;;;;;;4.15;3.65;;;20.30;97.20;;;;;;1735043;28;20699;-72
2022/08/11 05:12:44;;;;;;;3.80;3.47;;;20.30;97.20;;;;;;1734033;28;20204;-72
2022/08/11 05:34:52;;;;;;;4.03;3.30;;;20.90;97.20;;;;;;1735059;28;20199;-72
2022/08/11 05:35:47;;;;;;;4.55;3.33;;;20.90;97.20;;;;;;1734943;28;20223;-72
2022/08/11 05:36:44;;;;;;;3.80;2.90;;;21.00;97.20;;;;;;1734907;28;20200;-72
2022/08/11 05:37:41;;;;;;;6.20;3.50;;;21.00;97.20;;;;;;1734375;28;20200;-72
2022/08/11 05:56:20;;;;;;;5.88;3.40;;;21.50;97.20;;;;;;1728041;28;20195;-72
2022/08/11 05:57:18;;;;;;;5.93;3.53;;;21.50;97.20;;;;;;1728514;28;20200;-72
2022/08/11 05:58:11;;;;;;;6.85;3.47;;;21.50;97.20;;;;;;1734761;28;20200;-73
2022/08/11 05:59:02;;;;;;;6.63;3.70;;;21.50;97.20;;;;;;1734782;28;20211;-73
2022/08/11 06:00:00;;;;;;;7.03;2.90;;;21.50;97.20;;;;;;1734716;28;20274;-73
2022/08/11 06:00:52;;;;;;;4.90;3.20;;;21.60;97.20;;;;;;1734457;28;20438;-73
2022/08/11 06:01:46;;;;;;;6.63;3.70;;;21.60;97.20;;;;;;1734639;28;20249;-72
2022/08/11 06:02:41;;;;;;;6.82;3.50;;;21.60;97.20;;;;;;1734729;28;20208;-73
2022/08/11 06:04:12;;;;;;;4.75;3.45;;;21.70;97.20;;;;;;1734696;28;20200;-72
2022/08/11 06:04:55;;;;;;;4.10;3.70;;;21.70;97.20;;;;;;1734629;28;20211;-72
2022/08/11 06:05:47;;;;;;;7.07;3.30;;;21.70;97.20;;;;;;1734567;28;20646;-72
2022/08/11 06:06:45;;;;;;;3.70;3.40;;;21.80;97.20;;;;;;1734721;28;20589;-72
2022/08/11 06:07:38;;;;;;;6.43;3.42;;;21.80;97.20;;;;;;1734519;28;20570;-72
2022/08/11 06:08:31;;;;;;;5.35;3.85;;;21.80;97.20;;;;;;1734603;28;20204;-72
2022/08/11 06:09:34;;;;;;;17.27;4.43;;;21.90;97.20;;;;;;1734689;28;20258;-72
2022/08/11 06:10:28;;;;;;;5.07;3.58;;;21.90;97.20;;;;;;1734455;28;20215;-72
2022/08/11 06:11:20;;;;;;;8.18;3.90;;;21.90;97.20;;;;;;1734499;28;20196;-72
2022/08/11 06:12:17;;;;;;;7.50;3.05;;;21.90;97.20;;;;;;1734454;28;20204;-73
2022/08/11 06:13:14;;;;;;;4.50;3.22;;;22.00;97.20;;;;;;1733987;28;20286;-72
2022/08/11 06:14:07;;;;;;;10.00;4.00;;;22.00;97.20;;;;;;1734288;28;20226;-72
2022/08/11 06:15:04;;;;;;;5.30;3.33;;;22.00;97.20;;;;;;1734639;28;20674;-72
2022/08/11 06:15:57;;;;;;;8.45;3.33;;;22.00;97.20;;;;;;1734484;28;20231;-72
2022/08/11 06:16:50;;;;;;;5.03;3.45;;;22.10;97.20;;;;;;1734574;28;20311;-72
2022/08/11 06:17:45;;;;;;;4.80;3.53;;;22.10;97.20;;;;;;1734177;28;20713;-72
2022/08/11 06:18:39;;;;;;;5.75;3.60;;;22.10;97.20;;;;;;1734598;28;20246;-72
2022/08/11 06:19:32;;;;;;;5.55;3.40;;;22.10;97.20;;;;;;1734605;28;20206;-72
2022/08/11 06:20:25;;;;;;;6.05;3.40;;;22.20;97.20;;;;;;1734336;28;20203;-72
2022/08/11 06:21:17;;;;;;;3.65;3.30;;;22.20;97.20;;;;;;1734444;28;20215;-72
2022/08/11 06:22:12;;;;;;;5.53;3.40;;;22.20;97.20;;;;;;1734291;28;20192;-72
2022/08/11 06:23:05;;;;;;;6.00;3.17;;;22.20;97.20;;;;;;1734613;28;20212;-72
2022/08/11 06:23:59;;;;;;;3.95;3.40;;;22.30;97.20;;;;;;1734170;28;20196;-72
2022/08/11 06:24:54;;;;;;;5.43;3.22;;;22.30;97.20;;;;;;1734700;28;20204;-72
2022/08/11 06:25:47;;;;;;;5.35;3.15;;;22.30;97.20;;;;;;1734708;28;20211;-72
2022/08/11 06:26:40;;;;;;;4.60;3.47;;;22.30;97.20;;;;;;1734568;28;20246;-72
2022/08/11 06:27:35;;;;;;;6.78;4.00;;;22.30;97.20;;;;;;1734600;28;20203;-72
2022/08/11 06:28:30;;;;;;;4.95;3.60;;;22.30;97.20;;;;;;1734238;28;20203;-72
2022/08/11 06:29:23;;;;;;;3.80;3.40;;;22.40;97.20;;;;;;1734691;28;20227;-72
2022/08/11 06:30:14;;;;;;;4.15;3.58;;;22.40;97.20;;;;;;1734246;28;20211;-72
2022/08/11 06:31:13;;;;;;;3.40;3.10;;;22.40;97.20;;;;;;1734518;28;20283;-72
2022/08/11 06:32:05;;;;;;;6.65;3.40;;;22.40;97.20;;;;;;1734464;28;20447;-73
2022/08/11 06:32:57;;;;;;;5.45;3.65;;;22.40;97.20;;;;;;1734564;28;20195;-72
2022/08/11 06:34:00;;;;;;;4.40;3.60;;;22.40;97.20;;;;;;1734465;28;20199;-72
2022/08/11 06:35:14;;;;;;;6.65;3.30;;;22.50;97.20;;;;;;1734534;28;20695;-72
2022/08/11 06:36:10;;;;;;;5.35;4.00;;;22.50;97.20;;;;;;1734427;28;20215;-72
2022/08/11 06:37:20;;;;;;;4.00;3.45;;;22.50;97.20;;;;;;1734472;28;20291;-72
2022/08/11 06:38:15;;;;;;;4.00;3.60;;;22.50;97.20;;;;;;1734144;28;20201;-72
2022/08/11 06:39:20;;;;;;;5.90;3.28;;;22.50;97.20;;;;;;1734416;28;20196;-72
2022/08/11 06:40:22;;;;;;;6.68;3.15;;;22.50;97.20;;;;;;1734181;28;20199;-72
2022/08/11 06:41:33;;;;;;;3.85;3.53;;;22.60;97.20;;;;;;1734451;28;20564;-72
2022/08/11 06:42:37;;;;;;;4.35;3.95;;;22.60;97.20;;;;;;1734486;28;20208;-72
2022/08/11 06:43:33;;;;;;;9.23;3.70;;;22.60;97.20;;;;;;1734451;28;20261;-72
2022/08/11 06:44:31;;;;;;;6.45;3.58;;;22.60;97.20;;;;;;1734410;28;20662;-72
2022/08/11 06:45:29;;;;;;;10.27;3.88;;;22.60;97.20;;;;;;1734075;28;20930;-72
2022/08/11 06:46:26;;;;;;;4.90;3.75;;;22.70;97.20;;;;;;1734171;28;20227;-72
2022/08/11 06:47:19;;;;;;;6.03;3.63;;;22.70;97.20;;;;;;1734522;28;20218;-72
2022/08/11 06:48:16;;;;;;;5.95;3.65;;;22.70;97.20;;;;;;1734340;28;20203;-72
2022/08/11 06:51:29;;;;;;;3.65;3.08;;;22.80;97.20;;;;;;1734069;28;20207;-72
2022/08/11 06:52:29;;;;;;;5.00;3.60;;;22.80;97.20;;;;;;1734459;28;20203;-72
2022/08/11 06:53:22;;;;;;;6.03;4.03;;;22.80;97.20;;;;;;1734489;28;20569;-72
2022/08/11 06:54:13;;;;;;;6.03;4.20;;;22.80;97.20;;;;;;1734333;28;20203;-73
2022/08/11 06:55:08;;;;;;;4.35;3.47;;;22.80;97.20;;;;;;1734303;28;20286;-72
2022/08/11 07:00:48;;;;;;;3.63;3.33;;;23.00;97.20;;;;;;1734218;28;20249;-73
2022/08/11 07:01:48;;;;;;;5.85;4.10;;;23.00;97.20;;;;;;1734221;28;20211;-73
2022/08/11 07:02:49;;;;;;;4.70;3.75;;;23.00;97.20;;;;;;1734405;28;20203;-73
2022/08/11 07:03:43;;;;;;;4.85;3.20;;;23.00;97.20;;;;;;1734445;28;20200;-73
2022/08/11 07:04:44;;;;;;;5.22;3.88;;;23.10;97.20;;;;;;1734358;28;20204;-73
2022/08/11 07:05:43;;;;;;;7.78;4.32;;;23.10;97.20;;;;;;1733987;28;20192;-73
2022/08/11 07:15:42;;;;;;;4.90;4.30;;;23.30;97.20;;;;;;1724518;28;20210;-72
2022/08/11 07:16:33;;;;;;;4.40;4.00;;;23.30;97.20;;;;;;1734280;28;20207;-71
2022/08/11 07:17:25;;;;;;;4.72;4.10;;;23.30;97.20;;;;;;1732438;28;20200;-71
2022/08/11 07:29:27;;;;;;;7.18;4.25;;;23.60;97.20;;;;;;1719790;28;20201;-71
2022/08/11 07:30:17;;;;;;;5.90;3.88;;;23.60;97.20;;;;;;1719551;28;20225;-71
2022/08/11 07:31:13;;;;;;;6.20;3.50;;;23.60;97.20;;;;;;1719758;28;20282;-71
2022/08/11 07:32:22;;;;;;;5.10;3.97;;;23.70;97.20;;;;;;1727815;28;20286;-71
2022/08/11 07:33:18;;;;;;;4.78;4.00;;;23.70;97.20;;;;;;1734184;28;20619;-71
2022/08/11 07:34:20;;;;;;;9.48;3.72;;;23.70;97.20;;;;;;1734215;28;20211;-72
2022/08/11 07:35:14;;;;;;;7.07;3.25;;;23.70;97.20;;;;;;1733566;28;20211;-71
2022/08/11 07:36:11;;;;;;;12.30;3.60;;;23.70;97.20;;;;;;1733441;28;20219;-71
2022/08/11 07:37:09;;;;;;;11.43;3.80;;;23.80;97.20;;;;;;1734282;28;20204;-71
2022/08/11 07:38:03;;;;;;;9.07;5.13;;;23.80;97.20;;;;;;1734376;28;20196;-71
2022/08/11 07:38:55;;;;;;;5.90;3.50;;;23.80;97.20;;;;;;1734170;28;20211;-71
2022/08/11 07:39:48;;;;;;;8.20;3.80;;;23.90;97.20;;;;;;1734147;28;20195;-72
2022/08/11 07:40:42;;;;;;;4.85;3.67;;;23.90;97.20;;;;;;1733877;28;20252;-72
2022/08/11 07:41:34;;;;;;;5.13;3.65;;;23.90;97.20;;;;;;1734052;28;20618;-71
2022/08/11 07:42:29;;;;;;;7.25;3.67;;;23.90;97.20;;;;;;1734179;28;20208;-71
2022/08/11 07:43:21;;;;;;;4.05;3.20;;;24.00;97.20;;;;;;1734099;28;20203;-72
2022/08/11 07:44:13;;;;;;;4.43;3.60;;;24.00;97.20;;;;;;1734073;28;20207;-72
2022/08/11 07:52:28;;;;;;;3.72;3.42;;;24.20;97.20;;;;;;1734208;28;20218;-72
2022/08/11 07:53:21;;;;;;;5.13;3.80;;;24.20;97.20;;;;;;1734205;28;20581;-71
2022/08/11 07:54:14;;;;;;;4.05;3.50;;;24.20;97.20;;;;;;1734090;28;20262;-71
2022/08/11 07:55:08;;;;;;;5.82;3.75;;;24.20;97.20;;;;;;1734022;28;20265;-71
2022/08/11 07:56:01;;;;;;;4.63;3.72;;;24.30;97.20;;;;;;1733407;28;20222;-71
2022/08/11 07:56:54;;;;;;;3.70;3.40;;;24.30;97.20;;;;;;1733967;28;20302;-71
2022/08/11 08:17:50;;;;;;;6.53;3.40;;;24.80;97.20;;;;;;1734004;28;20629;-71
2022/08/11 08:18:43;;;;;;;7.35;3.60;;;24.80;97.20;;;;;;1734030;28;20200;-71
2022/08/11 08:19:35;;;;;;;5.18;3.20;;;24.80;97.20;;;;;;1733985;28;20801;-71
2022/08/11 08:20:28;;;;;;;4.82;3.38;;;24.80;97.20;;;;;;1729024;28;20208;-71
2022/08/11 08:21:20;;;;;;;3.42;3.13;;;24.90;97.20;;;;;;1733077;28;20262;-71
2022/08/11 08:22:14;;;;;;;4.53;3.05;;;24.90;97.20;;;;;;1733235;28;20584;-71
2022/08/11 08:23:07;;;;;;;3.60;3.30;;;24.90;97.20;;;;;;1733326;28;21349;-71
2022/08/11 08:23:59;;;;;;;3.58;3.28;;;24.90;97.20;;;;;;1733398;28;20726;-71
2022/08/11 08:24:52;;;;;;;4.03;3.40;;;25.00;97.20;;;;;;1733227;28;20204;-71
2022/08/11 08:25:46;;;;;;;4.57;3.20;;;25.00;97.20;;;;;;1733129;28;20224;-72
2022/08/11 08:27:50;;;;;;;3.58;3.25;;;25.00;97.20;;;;;;1729304;28;20223;-72
2022/08/11 08:28:45;;;;;;;4.00;3.60;;;25.00;97.20;;;;;;1730246;28;20212;-71
2022/08/11 08:30:50;;;;;;;4.03;3.37;;;25.10;97.20;;;;;;1729109;28;20219;-72
2022/08/11 08:31:43;;;;;;;4.75;2.95;;;25.10;97.20;;;;;;1733873;28;20438;-72
2022/08/11 08:32:38;;;;;;;6.30;3.30;;;25.10;97.20;;;;;;1733995;28;20853;-71
2022/08/11 08:33:31;;;;;;;4.35;3.15;;;25.20;97.20;;;;;;1733872;28;20862;-71
2022/08/11 08:34:23;;;;;;;3.15;2.85;;;25.20;97.20;;;;;;1733937;28;20204;-71
2022/08/11 08:35:15;;;;;;;3.50;3.20;;;25.20;97.20;;;;;;1733369;28;20196;-71
2022/08/11 08:36:11;;;;;;;3.43;3.10;;;25.30;97.20;;;;;;1733845;28;20477;-72
2022/08/11 08:37:04;;;;;;;3.45;3.15;;;25.30;97.20;;;;;;1734213;28;20431;-72
2022/08/11 08:37:58;;;;;;;3.40;3.10;;;25.40;97.20;;;;;;1733981;28;20291;-72
2022/08/11 08:38:52;;;;;;;6.00;3.10;;;25.40;97.20;;;;;;1733989;28;20810;-71
2022/08/11 08:39:47;;;;;;;4.85;2.85;;;25.40;97.20;;;;;;1733987;28;21020;-71
2022/08/11 08:40:41;;;;;;;3.65;3.13;;;25.50;97.20;;;;;;1733646;28;20207;-72
2022/08/11 08:41:37;;;;;;;7.05;3.85;;;25.50;97.20;;;;;;1733816;28;20199;-71
2022/08/11 08:42:30;;;;;;;3.00;2.80;;;25.50;97.20;;;;;;1734040;28;20215;-72
2022/08/11 08:43:24;;;;;;;3.00;2.80;;;25.60;97.20;;;;;;1733916;28;20484;-71
2022/08/11 08:44:19;;;;;;;3.00;2.80;;;25.60;97.20;;;;;;1733970;28;20526;-71
2022/08/11 08:45:15;;;;;;;3.40;3.00;;;25.60;97.20;;;;;;1733676;28;20200;-71
2022/08/11 08:46:09;;;;;;;6.60;3.35;;;25.60;97.20;;;;;;1733821;28;20224;-71
2022/08/11 08:47:01;;;;;;;3.60;3.20;;;25.60;97.20;;;;;;1733616;28;20216;-71
2022/08/11 08:47:59;;;;;;;2.90;2.70;;;25.70;97.20;;;;;;1741953;28;20503;-71
2022/08/11 08:48:51;;;;;;;3.50;3.05;;;25.70;97.20;;;;;;1742005;28;20445;-71
2022/08/11 08:49:48;;;;;;;3.25;2.95;;;25.70;97.20;;;;;;1742166;28;20584;-71
2022/08/11 08:52:03;;;;;;;3.65;3.00;;;25.70;97.20;;;;;;1741069;28;20626;-72
2022/08/11 08:52:59;;;;;;;3.60;3.30;;;25.70;97.20;;;;;;1741813;28;20302;-71
2022/08/11 08:53:53;;;;;;;5.15;3.17;;;25.70;97.20;;;;;;1741962;28;20536;-71
2022/08/11 08:54:50;;;;;;;4.47;2.90;;;25.80;97.20;;;;;;1741904;28;20213;-72
2022/08/11 08:55:45;;;;;;;3.55;3.25;;;25.80;97.20;;;;;;1736395;28;20937;-71
2022/08/11 08:56:39;;;;;;;4.18;3.10;;;25.80;97.20;;;;;;1735031;28;20211;-72
2022/08/11 08:57:34;;;;;;;3.53;3.00;;;25.80;97.20;;;;;;1735039;28;20211;-71
2022/08/11 08:58:25;;;;;;;3.50;3.20;;;25.80;97.20;;;;;;1735165;28;20846;-71
2022/08/11 08:59:21;;;;;;;4.40;3.50;;;25.90;97.20;;;;;;1735142;28;20253;-71
2022/08/11 09:00:14;;;;;;;3.30;3.10;;;25.90;97.20;;;;;;1734793;28;20458;-72
2022/08/11 09:01:09;;;;;;;5.75;3.00;;;25.90;97.20;;;;;;1735067;28;20434;-71
2022/08/11 09:02:02;;;;;;;4.13;3.20;;;25.90;97.20;;;;;;1735133;28;20199;-72
2022/08/11 09:02:54;;;;;;;5.07;3.80;;;26.00;97.20;;;;;;1734996;28;20446;-72
2022/08/11 09:03:45;;;;;;;7.67;3.60;;;26.00;97.20;;;;;;1735033;28;20446;-71
2022/08/11 09:04:37;;;;;;;5.43;2.70;;;26.00;97.20;;;;;;1735044;28;20447;-71
2022/08/11 09:05:28;;;;;;;3.42;3.13;;;26.00;97.20;;;;;;1734447;28;20816;-71
2022/08/11 09:06:20;;;;;;;3.40;3.20;;;26.00;97.20;;;;;;1735103;28;20258;-71
2022/08/11 09:07:15;;;;;;;3.80;3.00;;;26.10;97.20;;;;;;1734855;28;20482;-71
2022/08/11 09:08:08;;;;;;;5.47;3.33;;;26.10;97.20;;;;;;1735119;28;20800;-71
2022/08/11 09:08:59;;;;;;;3.10;2.90;;;26.10;97.20;;;;;;1735018;28;20438;-72
2022/08/11 09:09:54;;;;;;;3.40;3.08;;;26.20;97.20;;;;;;1735056;28;20443;-71
2022/08/11 09:10:46;;;;;;;3.90;3.00;;;26.20;97.20;;;;;;1734717;28;20283;-71
2022/08/11 09:11:53;;;;;;;3.37;3.07;;;26.20;97.20;;;;;;1734981;28;20469;-72
2022/08/11 09:12:44;;;;;;;4.65;3.40;;;26.20;97.20;;;;;;1734997;28;20484;-73
2022/08/11 09:13:41;;;;;;;3.87;3.37;;;26.30;97.20;;;;;;1734992;28;20618;-71
2022/08/11 09:15:42;;;;;;;4.22;3.38;;;26.30;97.20;;;;;;1734192;28;20509;-72
2022/08/11 09:16:33;;;;;;;10.93;2.70;;;26.40;97.20;;;;;;1734941;28;20212;-72
2022/08/11 09:17:28;;;;;;;3.57;3.27;;;26.40;97.20;;;;;;1734441;28;20442;-71
2022/08/11 09:18:20;;;;;;;5.23;3.40;;;26.40;97.20;;;;;;1734529;28;20957;-72
2022/08/11 09:19:16;;;;;;;3.07;2.87;;;26.40;97.20;;;;;;1734798;28;20453;-71
2022/08/11 09:20:11;;;;;;;6.33;3.10;;;26.40;97.20;;;;;;1734647;28;20927;-71
2022/08/11 09:21:03;;;;;;;3.35;3.05;;;26.40;97.20;;;;;;1735052;28;20504;-72
2022/08/11 09:26:59;;;;;;;4.73;3.20;;;26.50;97.20;;;;;;1707273;29;20202;-72
2022/08/11 09:27:51;;;;;;;3.50;2.87;;;26.60;97.10;;;;;;1723807;28;20522;-71
2022/08/11 09:28:46;;;;;;;3.50;3.20;;;26.60;97.10;;;;;;1735007;28;20526;-72
2022/08/11 09:29:37;;;;;;;3.70;2.90;;;26.60;97.20;;;;;;1734954;28;20453;-72
2022/08/11 09:30:29;;;;;;;5.67;3.27;;;26.60;97.20;;;;;;1734465;28;20447;-71
2022/08/11 09:31:21;;;;;;;3.17;2.97;;;26.60;97.20;;;;;;1734746;28;20454;-71
2022/08/11 09:32:13;;;;;;;6.40;3.50;;;26.70;97.20;;;;;;1734865;28;20473;-72
2022/08/11 09:33:06;;;;;;;3.67;3.13;;;26.70;96.90;;;;;;1734814;28;20442;-72
2022/08/11 09:33:58;;;;;;;3.07;2.87;;;26.70;96.40;;;;;;1734794;28;20446;-71
2022/08/11 09:34:50;;;;;;;3.67;3.37;;;26.70;96.40;;;;;;1734823;28;20814;-72
2022/08/11 09:35:46;;;;;;;4.40;3.30;;;26.70;96.40;;;;;;1734388;28;20486;-72
2022/08/11 09:41:31;;;;;;;4.13;2.80;;;26.80;96.10;;;;;;1724036;28;20199;-72
2022/08/11 09:44:45;;;;;;;2.80;2.40;;;26.80;96.20;;;;;;1734825;28;20204;-71
2022/08/11 09:44:48;;;;;;;3.60;2.83;;;26.80;95.20;;;;;;1734817;28;20460;-72
2022/08/11 09:45:40;;;;;;;3.23;2.80;;;26.80;95.30;;;;;;1734261;28;20524;-72
2022/08/11 09:46:32;;;;;;;3.53;3.00;;;26.80;95.60;;;;;;1734698;28;20447;-71
2022/08/11 09:47:25;;;;;;;3.67;2.47;;;26.80;95.70;;;;;;1734706;28;20984;-72
2022/08/11 09:48:17;;;;;;;4.30;2.83;;;26.90;95.60;;;;;;1734841;28;20937;-72
2022/08/11 09:49:09;;;;;;;3.50;2.90;;;26.90;95.80;;;;;;1734862;28;20525;-72
2022/08/11 09:50:02;;;;;;;5.90;3.00;;;26.90;95.70;;;;;;1734834;28;20431;-72
2022/08/11 09:50:58;;;;;;;3.40;2.90;;;26.90;95.50;;;;;;1734771;28;20489;-72
2022/08/11 09:51:50;;;;;;;4.50;3.20;;;27.00;95.80;;;;;;1734735;28;20442;-72
2022/08/11 09:52:44;;;;;;;3.13;2.83;;;27.00;95.90;;;;;;1734070;28;20443;-70
2022/08/11 09:53:38;;;;;;;2.80;2.60;;;27.00;95.40;;;;;;1741575;28;20453;-71
2022/08/11 09:54:30;;;;;;;4.43;2.77;;;27.00;95.20;;;;;;1741533;28;20441;-71
2022/08/11 09:55:21;;;;;;;3.30;2.97;;;27.00;95.30;;;;;;1740157;28;20457;-71
2022/08/11 09:58:37;;;;;;;4.63;3.40;;;27.10;95.30;;;;;;1734073;28;20940;-72
2022/08/11 09:59:31;;;;;;;5.07;3.20;;;27.20;95.20;;;;;;1734480;28;20451;-71
2022/08/11 10:00:28;;;;;;;4.10;3.03;;;27.20;94.80;;;;;;1734517;28;20439;-72
2022/08/11 10:01:27;;;;;;;3.27;2.87;;;27.20;94.60;;;;;;1734710;28;20937;-72
2022/08/11 10:02:25;;;;;;;3.10;2.80;;;27.20;94.20;;;;;;1734723;28;20446;-71
2022/08/11 10:03:20;;;;;;;4.37;2.87;;;27.20;94.20;;;;;;1734744;28;20445;-71
2022/08/11 10:04:14;;;;;;;4.37;2.93;;;27.20;94.20;;;;;;1734701;28;20449;-71
2022/08/11 10:07:26;;;;;;;3.67;2.97;;;27.30;93.80;;;;;;1727858;28;20510;-72
2022/08/11 10:08:19;;;;;;;5.43;2.50;;;27.30;93.70;;;;;;1727965;28;20439;-72
2022/08/11 10:09:13;;;;;;;3.33;2.60;;;27.30;93.50;;;;;;1727366;28;20483;-72
2022/08/11 10:10:05;;;;;;;3.13;2.70;;;27.30;93.50;;;;;;1727032;28;20456;-71
2022/08/11 10:10:57;;;;;;;4.03;2.80;;;27.30;93.70;;;;;;1727653;28;20450;-72
2022/08/11 10:11:50;;;;;;;2.90;2.70;;;27.30;93.70;;;;;;1727757;28;20455;-72
2022/08/11 10:12:50;;;;;;;2.87;2.60;;;27.30;93.80;;;;;;1727840;28;20431;-72
2022/08/11 10:16:20;;;;;;;5.73;2.80;;;27.30;93.00;;;;;;1711684;28;20488;-72
2022/08/11 10:17:13;;;;;;;3.57;2.67;;;27.30;93.40;;;;;;1713538;28;20449;-71
2022/08/11 10:19:20;;;;;;;5.10;2.83;;;27.40;93.70;;;;;;1734709;28;20553;-71
2022/08/11 10:20:12;;;;;;;3.33;3.03;;;27.40;93.60;;;;;;1734329;28;21093;-71
2022/08/11 10:21:09;;;;;;;3.00;2.63;;;27.40;93.10;;;;;;1734699;28;20443;-71
2022/08/11 10:28:00;;;;;;;3.03;2.83;;;27.50;91.50;;;;;;1732629;28;20988;-71
2022/08/11 10:28:52;;;;;;;4.17;2.73;;;27.50;91.90;;;;;;1734498;28;20777;-72
2022/08/11 10:34:27;;;;;;;3.80;2.60;;;27.50;91.60;;;;;;1734534;28;20439;-71
2022/08/11 10:35:20;;;;;;;3.30;2.70;;;27.50;91.70;;;;;;1734330;28;20443;-71
2022/08/11 10:36:13;;;;;;;3.23;2.70;;;27.50;92.10;;;;;;1734177;28;20466;-72
2022/08/11 10:37:10;;;;;;;4.33;2.93;;;27.50;92.10;;;;;;1734450;28;20459;-72
2022/08/11 10:38:03;;;;;;;7.97;3.17;;;27.60;91.80;;;;;;1734440;28;20443;-71
2022/08/11 10:38:56;;;;;;;3.60;2.83;;;27.60;91.40;;;;;;1734447;28;20438;-71
2022/08/11 10:39:49;;;;;;;3.10;2.80;;;27.60;91.20;;;;;;1734459;28;20446;-72
2022/08/11 10:40:44;;;;;;;3.43;2.60;;;27.60;91.30;;;;;;1734262;28;20466;-71
2022/08/11 10:43:05;;;;;;;3.63;2.60;;;27.70;91.30;;;;;;1734564;28;20460;-72
2022/08/11 10:44:00;;;;;;;3.43;2.37;;;27.70;91.20;;;;;;1734497;28;20446;-72
2022/08/11 10:44:52;;;;;;;3.10;2.90;;;27.70;90.80;;;;;;1734385;28;20779;-71
2022/08/11 10:48:06;;;;;;;7.23;2.80;;;27.80;90.80;;;;;;1734520;28;20986;-72
2022/08/11 10:48:58;;;;;;;4.50;3.17;;;27.80;91.10;;;;;;1734349;28;20443;-72
2022/08/11 10:51:11;;;;;;;2.73;2.47;;;27.80;90.90;;;;;;1734399;28;20434;-71
2022/08/11 10:51:12;;;;;;;2.87;2.57;;;27.80;90.50;;;;;;1734471;28;20995;-72
2022/08/11 10:59:07;;;;;;;2.80;2.30;;;27.90;89.10;;;;;;1734437;28;20414;-74
2022/08/11 10:59:59;;;;;;;4.70;2.20;;;27.90;89.20;;;;;;1734267;28;20537;-74
2022/08/11 11:00:55;;;;;;;3.27;2.97;;;27.90;89.10;;;;;;1734059;28;20438;-74
2022/08/11 11:01:46;;;;;;;4.40;2.93;;;27.90;89.50;;;;;;1734386;28;20952;-74
2022/08/11 11:02:39;;;;;;;8.37;2.90;;;27.90;89.70;;;;;;1733660;28;21223;-74
2022/08/11 11:03:33;;;;;;;2.83;2.20;;;27.90;89.60;;;;;;1734436;28;20442;-74
2022/08/11 11:04:39;;;;;;;3.73;2.40;;;27.90;89.60;;;;;;1734331;28;20435;-74
2022/08/11 11:05:31;;;;;;;3.57;2.50;;;28.00;89.30;;;;;;1734175;28;20449;-74
2022/08/11 11:06:27;;;;;;;3.57;2.40;;;28.00;89.60;;;;;;1735970;28;20443;-74
2022/08/11 11:07:23;;;;;;;2.60;2.33;;;28.00;89.50;;;;;;1741207;28;20450;-74
2022/08/11 11:09:32;;;;;;;4.13;2.80;;;28.00;89.10;;;;;;1741409;28;20424;-75
2022/08/11 11:10:23;;;;;;;4.03;2.37;;;27.90;88.50;;;;;;1741019;28;20450;-75
2022/08/11 11:11:16;;;;;;;2.73;2.53;;;27.90;88.60;;;;;;1741434;28;20437;-74
2022/08/11 11:18:11;;;;;;;2.93;2.73;;;28.00;89.30;;;;;;1734511;28;20418;-74
2022/08/11 11:19:07;;;;;;;4.63;2.57;;;28.00;89.50;;;;;;1730459;28;20524;-73
2022/08/11 11:20:00;;;;;;;2.70;2.50;;;28.00;89.60;;;;;;1731212;28;20809;-74
2022/08/11 11:20:56;;;;;;;3.10;2.90;;;28.00;89.60;;;;;;1734120;28;20484;-75
2022/08/11 11:21:51;;;;;;;3.73;2.60;;;28.10;89.90;;;;;;1735868;28;20439;-75
2022/08/11 11:22:46;;;;;;;3.50;2.60;;;28.10;89.60;;;;;;1730940;28;20471;-74
2022/08/11 11:23:41;;;;;;;2.50;2.30;;;28.10;89.30;;;;;;1732346;28;20458;-74
2022/08/11 11:24:41;;;;;;;2.50;2.30;;;28.20;88.90;;;;;;1738391;28;20448;-74
2022/08/11 11:26:05;;;;;;;2.70;2.50;;;28.20;88.50;;;;;;1740705;28;21007;-74
2022/08/11 11:27:02;;;;;;;4.17;2.57;;;28.20;88.40;;;;;;1737641;28;20465;-75
2022/08/11 11:28:05;;;;;;;2.93;2.20;;;28.20;88.90;;;;;;1741028;28;20499;-75
2022/08/11 11:29:30;;;;;;;3.80;2.40;;;28.20;88.40;;;;;;1741108;28;20503;-75
2022/08/11 11:30:31;;;;;;;5.53;2.63;;;28.20;88.40;;;;;;1737105;28;20456;-75
2022/08/11 11:31:33;;;;;;;2.73;2.47;;;28.20;87.90;;;;;;1741109;28;20532;-74
2022/08/11 11:32:30;;;;;;;6.80;2.57;;;28.20;87.90;;;;;;1741139;28;20469;-75
2022/08/11 11:33:29;;;;;;;3.03;2.73;;;28.20;88.60;;;;;;1741078;28;20815;-74
2022/08/11 11:34:36;;;;;;;3.83;2.70;;;28.30;88.60;;;;;;1741139;28;20963;-74
2022/08/11 11:35:44;;;;;;;2.90;2.70;;;28.30;88.70;;;;;;1740916;28;20458;-74
2022/08/11 11:36:43;;;;;;;3.13;2.60;;;28.30;88.40;;;;;;1740312;28;20466;-75
2022/08/11 11:37:36;;;;;;;2.83;2.63;;;28.30;88.30;;;;;;1741175;28;20469;-75
2022/08/11 11:38:29;;;;;;;2.50;2.30;;;28.40;88.30;;;;;;1741156;28;20448;-75
2022/08/11 11:41:27;;;;;;;2.60;2.13;;;28.40;88.00;;;;;;1730529;28;20446;-74
2022/08/11 11:42:20;;;;;;;2.80;2.53;;;28.40;88.00;;;;;;1740175;28;20442;-74
2022/08/11 11:43:12;;;;;;;3.23;2.67;;;28.50;88.00;;;;;;1734874;28;20945;-73
2022/08/11 11:44:04;;;;;;;2.00;1.90;;;28.50;87.70;;;;;;1738556;28;20445;-74
2022/08/11 11:44:57;;;;;;;3.00;2.40;;;28.50;87.60;;;;;;1737701;28;20461;-74
2022/08/11 11:45:54;;;;;;;3.40;2.73;;;28.50;87.70;;;;;;1735786;28;20926;-74
2022/08/11 11:46:49;;;;;;;5.30;2.53;;;28.50;87.90;;;;;;1730352;28;20476;-74
2022/08/11 11:47:40;;;;;;;3.37;2.70;;;28.50;88.10;;;;;;1736244;28;20478;-74
2022/08/11 11:50:16;;;;;;;6.53;2.80;;;28.50;88.30;;;;;;1699661;29;20484;-73
2022/08/11 11:51:12;;;;;;;9.73;3.20;;;28.60;88.40;;;;;;1699883;29;20533;-74
2022/08/11 11:52:06;;;;;;;6.23;3.27;;;28.60;88.20;;;;;;1710988;28;20451;-74
2022/08/11 11:52:59;;;;;;;5.90;2.57;;;28.60;88.00;;;;;;1727294;28;20443;-74
2022/08/11 11:53:52;;;;;;;12.23;2.87;;;28.60;87.80;;;;;;1727311;28;20938;-74
2022/08/11 11:54:44;;;;;;;6.37;3.07;;;28.70;87.70;;;;;;1727208;28;20487;-74
2022/08/11 11:55:37;;;;;;;2.70;2.50;;;28.70;87.70;;;;;;1727286;28;20439;-73
2022/08/11 11:56:28;;;;;;;3.23;2.63;;;28.70;87.70;;;;;;1727066;28;20826;-74
2022/08/11 12:02:02;;;;;;;3.90;2.30;;;28.80;86.80;;;;;;1741132;28;20471;-74
2022/08/11 12:02:55;;;;;;;2.30;2.07;;;28.80;86.80;;;;;;1740958;28;20540;-74
2022/08/11 12:03:49;;;;;;;5.60;2.90;;;28.80;86.90;;;;;;1740930;28;20434;-74
2022/08/11 12:04:42;;;;;;;2.43;2.17;;;28.80;86.80;;;;;;1741029;28;20807;-74
2022/08/11 12:05:36;;;;;;;2.87;2.67;;;28.80;86.50;;;;;;1740911;28;20448;-73
2022/08/11 12:06:26;;;;;;;2.23;2.03;;;28.80;86.60;;;;;;1740875;28;20616;-74
2022/08/11 12:08:28;;;;;;;2.80;2.60;;;28.80;86.20;;;;;;1737743;28;20446;-74
2022/08/11 12:09:22;;;;;;;2.57;2.37;;;28.80;86.20;;;;;;1733845;28;20447;-74
2022/08/11 12:10:13;;;;;;;3.13;2.40;;;28.80;85.90;;;;;;1733987;28;20499;-74
2022/08/11 12:13:40;;;;;;;4.10;2.20;;;28.80;86.70;;;;;;1734263;28;20413;-74
2022/08/11 12:14:31;;;;;;;4.10;2.27;;;28.80;86.70;;;;;;1734060;28;20439;-74
2022/08/11 12:15:24;;;;;;;4.70;2.20;;;28.90;86.60;;;;;;1734111;28;20490;-74
2022/08/11 12:16:18;;;;;;;2.60;2.40;;;28.90;86.70;;;;;;1734035;28;20761;-74
2022/08/11 12:17:10;;;;;;;5.10;3.30;;;28.90;86.50;;;;;;1733993;28;20446;-73
2022/08/11 12:18:01;;;;;;;3.20;2.10;;;28.90;86.50;;;;;;1734187;28;20945;-74
2022/08/11 12:18:55;;;;;;;2.40;2.20;;;28.90;86.50;;;;;;1740000;28;20441;-74
2022/08/11 12:19:47;;;;;;;3.80;2.63;;;28.90;86.40;;;;;;1740924;28;20445;-74
2022/08/11 12:20:39;;;;;;;2.20;2.00;;;28.90;86.50;;;;;;1740841;28;20472;-74
2022/08/11 12:21:31;;;;;;;5.67;2.20;;;29.00;86.20;;;;;;1740834;28;20445;-74
2022/08/11 12:27:22;;;;;;;3.23;2.17;;;29.00;86.00;;;;;;1742361;28;20525;-74
2022/08/11 12:28:13;;;;;;;2.33;2.13;;;29.10;85.60;;;;;;1741285;28;20484;-75
2022/08/11 12:29:07;;;;;;;6.50;2.20;;;29.00;85.50;;;;;;1735030;28;20427;-74
2022/08/11 12:30:02;;;;;;;5.33;2.10;;;29.00;85.30;;;;;;1735259;28;20458;-75
2022/08/11 12:30:54;;;;;;;2.50;1.93;;;29.00;85.30;;;;;;1735258;28;20445;-74
2022/08/11 12:31:48;;;;;;;2.33;2.13;;;29.00;85.00;;;;;;1735292;28;20929;-74
2022/08/11 12:32:40;;;;;;;2.27;2.07;;;28.90;85.30;;;;;;1735251;28;20450;-74
2022/08/11 12:33:31;;;;;;;2.50;2.30;;;28.90;85.10;;;;;;1735299;28;20446;-74
2022/08/11 12:34:25;;;;;;;2.10;1.90;;;28.90;85.10;;;;;;1735319;28;20445;-73
2022/08/11 12:35:16;;;;;;;2.93;2.30;;;28.90;85.60;;;;;;1735215;28;20450;-73